Terminal Aerodrome Forecast
Issued by NWS Sterling, VA

Home | Current Version | Previous Version | Text Only | Print | Product List | Glossary On
Versions: 1 2 3 4 5 6 7 8 9 10 11 12 13 14 15 16 17 18 19 20 21
000
FTUS41 KLWX 182331
TAFDCA
TAF
KDCA 182331Z 1900/2006 VRB03KT P6SM OVC060
     FM191100 VRB03KT P6SM SCT060
     FM191700 23009G16KT P6SM SCT250
     FM200000 27006KT P6SM SCT250=

USA.gov is the U.S. government's official web portal to all federal, state and local government web resources and services.